Deerfield, Virginia
Current Conditions -  °F | °C
As of 7:55 PM on Wednesday 22 Oct 2014 (Local Time) from KW13 Reporting Station
Scattered Clouds Scattered Clouds  
Wind Chill: 45°   Ceiling: Unl
Heat Index: 49°   Visibility: 10mi
Dew Point: 40°   Wind: 10mph
Humidity: 72%   Direction: 320°NW
Pressure: 30.02"   Gusts: 16mph
Location:  38.2°N, 79.41°W
Report Text: KW13 222355Z AUTO 32009G14KT 10SM SCT070 10/05 A3002 RMK AO1 T00950047 10146 20095
Loading
Personal Weather Stations






























Interactive Weather Map
Tropical Storm Tracking
New forecast layout! Learn more

10-Day Weather Forecast

Advertisements
Track Severe Weather on mobile